createdAt,value
2022-12-14T00:01:20.815Z,49.70
2022-12-14T00:03:48.165Z,49.70
2022-12-14T00:06:17.151Z,49.60
2022-12-14T00:08:44.382Z,49.70
2022-12-14T00:11:11.226Z,49.60
2022-12-14T00:13:39.696Z,49.70
2022-12-14T00:16:07.966Z,49.70
2022-12-14T00:18:35.156Z,49.70
2022-12-14T00:21:06.245Z,49.60
2022-12-14T00:23:38.713Z,49.60
2022-12-14T00:26:10.525Z,49.60
2022-12-14T00:28:39.126Z,49.60
2022-12-14T00:31:06.325Z,49.70
2022-12-14T00:33:33.212Z,49.60
2022-12-14T00:36:00.429Z,49.60
2022-12-14T00:38:27.864Z,49.60
2022-12-14T00:40:55.369Z,49.70
2022-12-14T00:43:22.135Z,49.60
2022-12-14T00:45:50.926Z,49.60
2022-12-14T00:48:18.901Z,49.60
2022-12-14T00:50:48.489Z,49.60
2022-12-14T00:53:16.033Z,49.80
2022-12-14T00:55:49.279Z,49.50
2022-12-14T00:58:19.088Z,49.60
2022-12-14T01:00:46.483Z,49.60
2022-12-14T01:03:15.331Z,49.60
2022-12-14T01:05:42.175Z,49.60
2022-12-14T01:08:16.294Z,49.60
2022-12-14T01:10:43.140Z,49.60
2022-12-14T01:13:10.976Z,49.60
2022-12-14T01:15:37.814Z,49.60
2022-12-14T01:18:04.866Z,49.60
2022-12-14T01:20:32.985Z,49.50
2022-12-14T01:22:59.726Z,50.20
2022-12-14T01:25:26.474Z,49.60
2022-12-14T01:27:53.284Z,49.60
2022-12-14T01:30:20.247Z,49.60
2022-12-14T01:32:47.184Z,49.60
2022-12-14T01:35:14.130Z,49.60
2022-12-14T01:37:42.220Z,49.50
2022-12-14T01:40:09.717Z,49.50
2022-12-14T01:42:37.085Z,49.50
2022-12-14T01:45:05.551Z,49.50
2022-12-14T01:47:40.364Z,49.50
2022-12-14T01:50:15.712Z,49.50
2022-12-14T01:52:46.924Z,49.50
2022-12-14T01:55:18.678Z,49.50
2022-12-14T01:57:48.877Z,49.50
2022-12-14T02:00:16.345Z,49.50
2022-12-14T02:02:48.609Z,49.50
2022-12-14T02:05:18.187Z,49.40
2022-12-14T02:07:48.928Z,49.50
2022-12-14T02:10:16.414Z,49.50
2022-12-14T02:12:47.771Z,49.50
2022-12-14T02:15:15.533Z,49.50
2022-12-14T02:17:43.716Z,49.50
2022-12-14T02:20:11.618Z,49.50
2022-12-14T02:23:08.701Z,49.40
2022-12-14T02:26:06.361Z,49.30
2022-12-14T02:29:21.707Z,49.40
2022-12-14T02:31:57.883Z,49.50
2022-12-14T02:34:36.651Z,49.50
2022-12-14T02:37:10.795Z,49.50
2022-12-14T02:39:45.467Z,49.50
2022-12-14T02:42:14.646Z,49.50
2022-12-14T02:44:51.507Z,49.40
2022-12-14T02:47:24.224Z,49.40
2022-12-14T02:50:02.097Z,49.50
2022-12-14T02:52:38.369Z,49.40
2022-12-14T02:55:10.227Z,49.40
2022-12-14T02:57:40.723Z,49.40
2022-12-14T03:00:10.097Z,49.40
2022-12-14T03:02:39.597Z,49.50
2022-12-14T03:05:07.067Z,49.40
2022-12-14T03:07:41.954Z,49.30
2022-12-14T03:10:19.426Z,49.30
2022-12-14T03:12:51.722Z,49.30
2022-12-14T03:15:21.592Z,49.30
2022-12-14T03:17:52.749Z,49.30
2022-12-14T03:20:24.154Z,49.30
2022-12-14T03:22:56.383Z,49.30
2022-12-14T03:25:30.015Z,49.30
2022-12-14T03:28:02.119Z,49.30
2022-12-14T03:30:59.024Z,49.30
2022-12-14T03:33:24.334Z,49.30
2022-12-14T03:35:57.487Z,49.30
2022-12-14T03:38:30.905Z,49.40
2022-12-14T03:41:08.313Z,49.40
2022-12-14T03:43:42.249Z,49.40
2022-12-14T03:46:25.011Z,49.30
2022-12-14T03:48:54.487Z,49.30
2022-12-14T03:51:30.796Z,49.30
2022-12-14T03:54:06.265Z,49.30
2022-12-14T03:56:40.869Z,49.30
2022-12-14T03:59:12.623Z,49.30
2022-12-14T04:01:50.255Z,49.30
2022-12-14T04:04:22.013Z,49.30
2022-12-14T04:06:56.487Z,49.30
2022-12-14T04:09:31.191Z,49.30
2022-12-14T04:12:04.716Z,49.30
2022-12-14T04:14:34.933Z,49.30
2022-12-14T04:17:07.549Z,49.30
2022-12-14T04:19:40.451Z,49.20
2022-12-14T04:22:10.469Z,49.20
2022-12-14T04:24:41.621Z,49.20
2022-12-14T04:27:14.175Z,49.20
2022-12-14T04:29:47.423Z,49.20
2022-12-14T04:32:19.485Z,49.20
2022-12-14T04:34:49.593Z,49.20
2022-12-14T04:37:19.938Z,49.20
2022-12-14T04:39:51.070Z,49.10
2022-12-14T04:42:20.648Z,49.20
2022-12-14T04:44:50.356Z,49.20
2022-12-14T04:47:19.776Z,49.10
2022-12-14T04:49:50.538Z,49.10
2022-12-14T04:52:21.575Z,49.10
2022-12-14T04:54:51.081Z,49.20
2022-12-14T04:57:24.127Z,49.10
2022-12-14T04:59:51.509Z,49.20
2022-12-14T05:02:30.795Z,49.10
2022-12-14T05:05:07.638Z,49.10
2022-12-14T05:07:42.442Z,49.10
2022-12-14T05:10:14.128Z,49.00
2022-12-14T05:12:46.209Z,49.10
2022-12-14T05:15:16.959Z,49.00
2022-12-14T05:17:45.148Z,49.10
2022-12-14T05:20:16.611Z,49.00
2022-12-14T05:22:43.343Z,49.00
2022-12-14T05:25:10.305Z,49.00
2022-12-14T05:27:37.314Z,49.00
2022-12-14T05:30:05.391Z,48.90
2022-12-14T05:32:32.885Z,48.90
2022-12-14T05:35:01.279Z,49.00
2022-12-14T05:37:28.001Z,49.00
2022-12-14T05:39:54.763Z,49.00
2022-12-14T05:42:21.801Z,48.90
2022-12-14T05:44:48.514Z,48.90
2022-12-14T05:47:15.296Z,48.90
2022-12-14T05:49:42.027Z,49.00
2022-12-14T05:52:10.138Z,48.90
2022-12-14T05:54:37.008Z,48.90
2022-12-14T05:57:04.061Z,48.90
2022-12-14T05:59:30.980Z,48.90
2022-12-14T06:01:57.797Z,49.00
2022-12-14T06:04:24.630Z,48.90
2022-12-14T06:06:51.428Z,48.90
2022-12-14T06:09:19.941Z,48.80
2022-12-14T06:11:47.382Z,48.90
2022-12-14T06:14:14.470Z,48.80
2022-12-14T06:16:42.048Z,48.80
2022-12-14T06:19:09.315Z,48.80
2022-12-14T06:21:39.285Z,48.80
2022-12-14T06:24:07.081Z,48.80
2022-12-14T06:26:36.074Z,48.80
2022-12-14T06:29:03.630Z,48.80
2022-12-14T06:31:32.570Z,48.70
2022-12-14T06:34:01.240Z,48.70
2022-12-14T06:36:30.577Z,48.70
2022-12-14T06:39:00.737Z,48.70
2022-12-14T06:41:27.666Z,48.70
2022-12-14T06:43:55.755Z,48.70
2022-12-14T06:46:23.516Z,48.70
2022-12-14T06:48:51.321Z,48.70
2022-12-14T06:51:18.242Z,48.70
2022-12-14T06:53:45.040Z,48.70
2022-12-14T06:56:13.755Z,48.70
2022-12-14T06:58:41.214Z,48.70
2022-12-14T07:01:11.959Z,48.80
2022-12-14T07:03:39.161Z,48.70
2022-12-14T07:06:07.086Z,48.70
2022-12-14T07:08:35.870Z,48.80
2022-12-14T07:11:04.236Z,48.70
2022-12-14T07:13:31.150Z,48.70
2022-12-14T07:15:59.055Z,48.80
2022-12-14T07:18:28.357Z,48.80
2022-12-14T07:20:57.055Z,48.80
2022-12-14T07:23:27.885Z,48.80
2022-12-14T07:26:01.179Z,48.80
2022-12-14T07:28:28.430Z,48.80
2022-12-14T07:30:55.525Z,48.80
2022-12-14T07:33:22.527Z,48.80
2022-12-14T07:36:00.938Z,48.80
2022-12-14T07:38:27.649Z,48.80
2022-12-14T07:40:54.426Z,48.90
2022-12-14T07:43:21.153Z,48.80
2022-12-14T07:45:47.906Z,48.80
2022-12-14T07:48:14.614Z,48.80
2022-12-14T07:50:41.319Z,48.90
2022-12-14T07:53:09.533Z,48.80
2022-12-14T07:55:36.263Z,48.80
2022-12-14T07:58:03.011Z,48.80
2022-12-14T08:00:29.781Z,48.90
2022-12-14T08:02:56.670Z,48.80
2022-12-14T08:05:23.532Z,48.80
2022-12-14T08:07:50.460Z,48.80
2022-12-14T08:10:18.698Z,49.50
2022-12-14T08:12:45.505Z,48.80
2022-12-14T08:15:12.302Z,48.90
2022-12-14T08:17:39.121Z,48.80
2022-12-14T08:20:06.940Z,48.90
2022-12-14T08:22:33.768Z,48.80
2022-12-14T08:25:00.662Z,48.80
2022-12-14T08:27:30.217Z,48.80
2022-12-14T08:29:56.943Z,48.80
2022-12-14T08:32:23.750Z,48.80
2022-12-14T08:34:50.438Z,48.80
2022-12-14T08:37:17.216Z,48.80
2022-12-14T08:39:44.056Z,48.70
2022-12-14T08:42:16.213Z,48.80
2022-12-14T08:44:44.293Z,48.80
2022-12-14T08:47:11.076Z,48.90
2022-12-14T08:49:37.818Z,48.90
2022-12-14T08:52:04.737Z,48.90
2022-12-14T08:54:31.665Z,48.90
2022-12-14T08:56:58.391Z,49.00
2022-12-14T08:59:59.330Z,49.00
2022-12-14T09:02:13.308Z,49.00
2022-12-14T09:04:40.129Z,49.60
2022-12-14T09:07:06.842Z,48.80
2022-12-14T09:09:34.984Z,48.80
2022-12-14T09:12:01.871Z,48.90
2022-12-14T09:14:28.937Z,48.80
2022-12-14T09:16:55.652Z,48.90
2022-12-14T09:19:23.794Z,48.90
2022-12-14T09:21:50.558Z,48.90
2022-12-14T09:24:17.398Z,48.90
2022-12-14T09:26:44.183Z,48.80
2022-12-14T09:29:15.167Z,48.90
2022-12-14T09:31:42.164Z,48.90
2022-12-14T09:34:09.578Z,48.80
2022-12-14T09:36:38.404Z,48.90
2022-12-14T09:39:05.139Z,48.80
2022-12-14T09:41:46.216Z,48.90
2022-12-14T09:44:26.414Z,48.90
2022-12-14T09:47:00.621Z,48.90
2022-12-14T09:49:30.589Z,49.10
2022-12-14T09:52:01.525Z,49.10
2022-12-14T09:54:31.237Z,49.00
2022-12-14T09:57:00.874Z,49.10
2022-12-14T09:59:30.134Z,49.10
2022-12-14T10:02:29.836Z,49.10
2022-12-14T10:05:00.437Z,49.20
2022-12-14T10:07:35.245Z,49.20
2022-12-14T10:10:10.216Z,49.20
2022-12-14T10:12:49.503Z,49.20
2022-12-14T10:15:25.812Z,49.30
2022-12-14T10:18:49.425Z,49.50
2022-12-14T10:21:11.444Z,49.50
2022-12-14T10:23:41.797Z,49.50
2022-12-14T10:26:16.793Z,49.50
2022-12-14T10:28:48.062Z,49.60
2022-12-14T10:31:24.012Z,49.60
2022-12-14T10:33:51.713Z,49.60
2022-12-14T10:36:25.098Z,49.60
2022-12-14T10:38:58.747Z,49.60
2022-12-14T10:41:36.005Z,49.70
2022-12-14T10:44:12.680Z,49.80
2022-12-14T10:46:46.620Z,49.90
2022-12-14T10:49:18.305Z,50.00
2022-12-14T10:51:49.818Z,50.10
2022-12-14T10:54:28.013Z,50.00
2022-12-14T10:56:54.834Z,50.10
2022-12-14T10:59:39.852Z,50.20
2022-12-14T11:02:12.581Z,50.30
2022-12-14T11:04:44.659Z,50.40
2022-12-14T11:07:13.200Z,50.40
2022-12-14T11:09:42.220Z,50.40
2022-12-14T11:12:17.851Z,50.40
2022-12-14T11:14:52.778Z,50.50
2022-12-14T11:17:31.945Z,50.50
2022-12-14T11:20:20.426Z,50.50
2022-12-14T11:22:49.145Z,50.60
2022-12-14T11:25:33.415Z,50.70
2022-12-14T11:28:03.343Z,50.80
2022-12-14T11:30:30.174Z,50.90
2022-12-14T11:32:57.378Z,50.70
2022-12-14T11:35:24.144Z,50.90
2022-12-14T11:37:57.730Z,50.90
2022-12-14T11:40:26.955Z,51.00
2022-12-14T11:43:00.752Z,50.90
2022-12-14T11:45:32.978Z,50.90
2022-12-14T11:48:21.556Z,50.90
2022-12-14T11:50:49.710Z,50.90
2022-12-14T11:53:18.879Z,50.90
2022-12-14T11:55:50.387Z,51.00
2022-12-14T11:58:21.894Z,50.90
2022-12-14T12:00:51.136Z,50.90
2022-12-14T12:03:23.536Z,50.90
2022-12-14T12:05:51.929Z,50.90
2022-12-14T12:08:23.046Z,50.90
2022-12-14T12:10:52.118Z,50.90
2022-12-14T12:13:26.428Z,50.80
2022-12-14T12:15:55.858Z,50.80
2022-12-14T12:18:27.462Z,50.80
2022-12-14T12:20:59.462Z,50.80
2022-12-14T12:23:32.955Z,50.80
2022-12-14T12:26:12.500Z,50.70
2022-12-14T12:28:44.765Z,50.60
2022-12-14T12:31:16.311Z,50.60
2022-12-14T12:33:49.524Z,50.60
2022-12-14T12:36:23.547Z,50.60
2022-12-14T12:39:02.024Z,50.50
2022-12-14T12:41:34.261Z,50.70
2022-12-14T12:44:17.217Z,50.50
2022-12-14T12:47:23.119Z,50.50
2022-12-14T12:49:39.920Z,50.40
2022-12-14T12:52:18.981Z,50.50
2022-12-14T12:54:53.458Z,50.40
2022-12-14T12:57:22.146Z,50.40
2022-12-14T12:59:53.364Z,50.40
2022-12-14T13:02:28.686Z,50.40
2022-12-14T13:04:56.760Z,50.30
2022-12-14T13:07:31.962Z,50.30
2022-12-14T13:10:05.912Z,50.30
2022-12-14T13:12:37.349Z,50.30
2022-12-14T13:15:15.641Z,50.30
2022-12-14T13:17:45.831Z,50.30
2022-12-14T13:20:20.767Z,50.10
2022-12-14T13:22:48.666Z,50.10
2022-12-14T13:25:21.644Z,50.10
2022-12-14T13:28:07.365Z,50.10
2022-12-14T13:30:52.260Z,50.00
2022-12-14T13:33:46.575Z,50.00
2022-12-14T13:36:59.658Z,50.00
2022-12-14T13:39:46.553Z,50.00
2022-12-14T13:42:29.157Z,50.00
2022-12-14T13:44:58.674Z,50.00
2022-12-14T13:47:30.250Z,50.00
2022-12-14T13:52:48.870Z,49.90
2022-12-14T13:55:32.393Z,49.90
2022-12-14T13:58:15.572Z,49.80
2022-12-14T14:00:57.923Z,49.80
2022-12-14T14:03:45.865Z,49.80
2022-12-14T14:06:32.924Z,49.80
2022-12-14T14:09:19.673Z,49.80
2022-12-14T14:11:56.894Z,49.70
2022-12-14T14:14:44.908Z,49.60
2022-12-14T14:17:18.660Z,49.60
2022-12-14T14:19:49.374Z,49.60
2022-12-14T14:22:23.335Z,49.50
2022-12-14T14:25:00.145Z,49.50
2022-12-14T14:27:34.635Z,49.40
2022-12-14T14:30:01.406Z,49.30
2022-12-14T14:32:38.903Z,49.30
2022-12-14T14:35:20.352Z,49.20
2022-12-14T14:37:55.545Z,49.10
2022-12-14T14:40:50.963Z,49.00
2022-12-14T14:43:24.864Z,49.10
2022-12-14T14:45:54.860Z,49.10
2022-12-14T14:48:30.785Z,49.10
2022-12-14T14:51:16.330Z,48.90
2022-12-14T14:53:43.421Z,49.00
2022-12-14T14:56:32.313Z,48.90
2022-12-14T14:59:32.564Z,48.90
2022-12-14T15:02:02.920Z,48.80
2022-12-14T15:04:37.477Z,48.80
2022-12-14T15:07:08.249Z,48.70
2022-12-14T15:09:40.989Z,48.70
2022-12-14T15:12:21.919Z,48.80
2022-12-14T15:14:53.920Z,48.80
2022-12-14T15:17:22.413Z,48.70
2022-12-14T15:19:50.431Z,48.70
2022-12-14T15:22:21.339Z,48.80
2022-12-14T15:24:51.830Z,48.80
2022-12-14T15:27:24.455Z,48.80
2022-12-14T15:29:52.093Z,48.90
2022-12-14T15:32:23.166Z,48.80
2022-12-14T15:34:54.797Z,48.70
2022-12-14T15:37:29.516Z,48.70
2022-12-14T15:40:05.617Z,48.70
2022-12-14T15:42:32.501Z,48.70
2022-12-14T15:45:07.166Z,48.80
2022-12-14T15:47:33.925Z,48.70
2022-12-14T15:50:24.125Z,48.80
2022-12-14T15:52:54.610Z,48.70
2022-12-14T15:55:27.771Z,48.80
2022-12-14T15:57:54.976Z,48.80
2022-12-14T16:00:21.906Z,48.90
2022-12-14T16:02:49.419Z,48.90
2022-12-14T16:05:19.774Z,48.90
2022-12-14T16:07:50.294Z,48.90
2022-12-14T16:10:24.049Z,48.80
2022-12-14T16:12:55.020Z,48.80
2022-12-14T16:15:24.006Z,49.00
2022-12-14T16:17:59.218Z,48.90
2022-12-14T16:20:29.939Z,48.90
2022-12-14T16:22:59.402Z,49.00
2022-12-14T16:25:28.434Z,48.90
2022-12-14T16:27:55.527Z,48.90
2022-12-14T16:30:29.161Z,49.00
2022-12-14T16:33:13.586Z,49.00
2022-12-14T16:35:40.422Z,49.00
2022-12-14T16:38:10.453Z,49.00
2022-12-14T16:40:41.412Z,49.10
2022-12-14T16:43:26.232Z,49.00
2022-12-14T16:46:17.458Z,49.10
2022-12-14T16:49:18.049Z,49.20
2022-12-14T16:52:06.336Z,49.10
2022-12-14T16:54:33.909Z,49.00
2022-12-14T16:57:04.130Z,49.20
2022-12-14T16:59:40.366Z,49.10
2022-12-14T17:02:24.030Z,49.10
2022-12-14T17:04:51.104Z,49.10
2022-12-14T17:07:21.682Z,49.10
2022-12-14T17:09:48.806Z,49.10
2022-12-14T17:12:18.356Z,49.10
2022-12-14T17:14:49.982Z,49.10
2022-12-14T17:17:20.110Z,49.20
2022-12-14T17:19:46.903Z,49.10
2022-12-14T17:22:18.328Z,49.20
2022-12-14T17:24:45.139Z,49.10
2022-12-14T17:27:17.493Z,49.10
2022-12-14T17:29:44.396Z,49.10
2022-12-14T17:32:13.349Z,49.20
2022-12-14T17:34:40.115Z,49.00
2022-12-14T17:37:14.638Z,49.00
2022-12-14T17:39:41.479Z,49.10
2022-12-14T17:42:12.124Z,49.10
2022-12-14T17:44:41.893Z,49.10
2022-12-14T17:47:15.363Z,49.10
2022-12-14T17:49:42.259Z,49.10
2022-12-14T17:52:16.642Z,49.00
2022-12-14T17:54:43.359Z,49.00
2022-12-14T17:57:16.040Z,49.10
2022-12-14T17:59:47.488Z,49.10
2022-12-14T18:02:25.813Z,49.00
2022-12-14T18:04:52.736Z,49.00
2022-12-14T18:07:19.554Z,49.00
2022-12-14T18:09:46.434Z,49.00
2022-12-14T18:12:23.095Z,49.00
2022-12-14T18:14:52.120Z,49.00
2022-12-14T18:17:19.117Z,49.00
2022-12-14T18:19:49.662Z,49.10
2022-12-14T18:22:16.826Z,49.10
2022-12-14T18:24:43.719Z,49.00
2022-12-14T18:27:14.295Z,49.10
2022-12-14T18:29:41.140Z,49.10
2022-12-14T18:32:12.567Z,49.10
2022-12-14T18:34:39.403Z,49.10
2022-12-14T18:37:06.198Z,49.70
2022-12-14T18:39:32.997Z,49.00
2022-12-14T18:41:59.806Z,49.10
2022-12-14T18:44:26.881Z,49.00
2022-12-14T18:46:53.782Z,49.00
2022-12-14T18:49:21.996Z,49.10
2022-12-14T18:51:48.730Z,49.00
2022-12-14T18:54:15.482Z,49.00
2022-12-14T18:56:42.251Z,49.00
2022-12-14T18:59:08.986Z,49.00
2022-12-14T19:01:35.765Z,48.90
2022-12-14T19:04:02.696Z,48.90
2022-12-14T19:06:46.418Z,48.90
2022-12-14T19:09:13.609Z,48.80
2022-12-14T19:11:41.196Z,48.70
2022-12-14T19:14:08.151Z,48.80
2022-12-14T19:16:35.052Z,48.90
2022-12-14T19:19:02.052Z,48.80
2022-12-14T19:21:30.210Z,48.80
2022-12-14T19:23:57.194Z,48.80
2022-12-14T19:26:23.954Z,48.80
2022-12-14T19:28:50.722Z,48.80
2022-12-14T19:31:17.532Z,48.70
2022-12-14T19:33:44.302Z,48.80
2022-12-14T19:36:11.695Z,48.70
2022-12-14T19:38:39.857Z,48.70
2022-12-14T19:41:10.004Z,48.80
2022-12-14T19:43:36.837Z,48.80
2022-12-14T19:46:06.183Z,49.40
2022-12-14T19:48:32.985Z,48.70
2022-12-14T19:51:03.133Z,48.70
2022-12-14T19:53:31.517Z,48.70
2022-12-14T19:55:59.983Z,48.70
2022-12-14T19:58:27.304Z,48.70
2022-12-14T20:00:54.200Z,48.70
2022-12-14T20:03:21.696Z,48.60
2022-12-14T20:05:52.970Z,48.60
2022-12-14T20:08:19.873Z,48.60
2022-12-14T20:10:46.819Z,48.60
2022-12-14T20:13:15.092Z,48.70
2022-12-14T20:15:47.945Z,48.60
2022-12-14T20:18:14.861Z,48.60
2022-12-14T20:20:41.681Z,49.00
2022-12-14T20:23:08.395Z,48.70
2022-12-14T20:25:35.404Z,48.70
2022-12-14T20:28:02.293Z,48.80
2022-12-14T20:30:31.126Z,48.60
2022-12-14T20:32:58.069Z,48.60
2022-12-14T20:35:24.937Z,48.60
2022-12-14T20:37:52.878Z,48.60
2022-12-14T20:40:19.615Z,48.60
2022-12-14T20:42:46.333Z,48.60
2022-12-14T20:45:13.227Z,48.40
2022-12-14T20:47:41.311Z,48.40
2022-12-14T20:50:08.271Z,48.50
2022-12-14T20:52:35.059Z,48.50
2022-12-14T20:55:02.225Z,48.40
2022-12-14T20:57:30.311Z,48.50
2022-12-14T20:59:59.396Z,48.50
2022-12-14T21:02:26.532Z,48.30
2022-12-14T21:04:54.732Z,48.30
2022-12-14T21:07:26.130Z,48.40
2022-12-14T21:09:53.460Z,48.40
2022-12-14T21:12:20.212Z,48.40
2022-12-14T21:14:48.093Z,48.40
2022-12-14T21:17:15.058Z,48.40
2022-12-14T21:19:41.927Z,48.30
2022-12-14T21:22:13.688Z,48.40
2022-12-14T21:27:28.618Z,48.50
2022-12-14T21:29:55.455Z,48.50
2022-12-14T21:32:22.716Z,48.50
2022-12-14T21:34:49.881Z,48.50
2022-12-14T21:37:18.393Z,48.50
2022-12-14T21:39:52.373Z,48.50
2022-12-14T21:42:21.828Z,48.50
2022-12-14T21:44:50.518Z,48.50
2022-12-14T21:47:18.921Z,48.50
2022-12-14T21:49:46.194Z,48.50
2022-12-14T21:52:14.342Z,48.50
2022-12-14T21:54:42.734Z,48.50
2022-12-14T21:57:12.980Z,48.60
2022-12-14T21:59:41.777Z,48.50
2022-12-14T22:02:13.617Z,48.40
2022-12-14T22:04:40.559Z,48.50
2022-12-14T22:07:07.302Z,48.50
2022-12-14T22:09:34.164Z,48.50
2022-12-14T22:12:02.276Z,48.40
2022-12-14T22:14:29.010Z,48.40
2022-12-14T22:16:55.767Z,48.40
2022-12-14T22:19:24.212Z,48.30
2022-12-14T22:21:52.156Z,48.30
2022-12-14T22:24:20.255Z,48.30
2022-12-14T22:26:47.259Z,48.20
2022-12-14T22:29:17.221Z,48.10
2022-12-14T22:31:44.483Z,48.10
2022-12-14T22:34:15.140Z,48.20
2022-12-14T22:36:41.885Z,48.10
2022-12-14T22:39:09.677Z,48.10
2022-12-14T22:41:36.726Z,48.10
2022-12-14T22:44:05.034Z,48.10
2022-12-14T22:46:33.407Z,48.10
2022-12-14T22:49:00.815Z,48.10
2022-12-14T22:51:27.632Z,48.10
2022-12-14T22:53:54.493Z,48.10
2022-12-14T22:56:24.515Z,48.10
2022-12-14T22:58:56.155Z,48.10
2022-12-14T23:01:23.106Z,48.10
2022-12-14T23:03:52.723Z,48.10
2022-12-14T23:06:19.843Z,48.10
2022-12-14T23:08:48.240Z,48.10
2022-12-14T23:11:15.200Z,48.10
2022-12-14T23:13:41.935Z,48.20
2022-12-14T23:16:08.708Z,48.20
2022-12-14T23:18:35.487Z,48.20
2022-12-14T23:21:09.788Z,48.20
2022-12-14T23:23:38.200Z,48.10
2022-12-14T23:26:05.204Z,48.30
2022-12-14T23:28:32.145Z,48.20
2022-12-14T23:30:59.041Z,48.30
2022-12-14T23:33:25.872Z,48.30
2022-12-14T23:35:52.632Z,48.30
2022-12-14T23:38:20.715Z,48.30
2022-12-14T23:40:47.429Z,48.30
2022-12-14T23:43:16.722Z,48.30
2022-12-14T23:45:43.573Z,48.20
2022-12-14T23:48:10.360Z,48.30
2022-12-14T23:50:37.071Z,48.20
2022-12-14T23:53:07.183Z,48.20
2022-12-14T23:55:35.361Z,48.30
2022-12-14T23:58:02.207Z,48.30
